Time;durP1;ratioP1;P1;durP2;ratioP2;P2;SDS_P1;SDS_P2;PMS_P1;PMS_P2;Temp;Humidity;BMP_temperature;BMP_pressure;BME280_temperature;BME280_humidity;BME280_pressure;Samples;Min_cycle;Max_cycle;Signal;HPM_P1;HPM_P2
2022/11/13 00:00:45;;;;;;;2.60;2.13;;;16.20;99.90;;;;;;5067023;28;20197;-65
2022/11/13 00:03:30;;;;;;;1.70;1.60;;;16.10;99.90;;;;;;5069432;28;20233;-66
2022/11/13 00:06:18;;;;;;;2.30;1.70;;;16.20;99.90;;;;;;5088062;28;20321;-66
2022/11/13 00:09:04;;;;;;;2.50;1.80;;;16.10;99.90;;;;;;5088336;28;20201;-66
2022/11/13 00:11:49;;;;;;;3.37;2.00;;;16.20;99.90;;;;;;5084528;28;20607;-66
2022/11/13 00:14:35;;;;;;;2.03;1.87;;;16.20;99.90;;;;;;5086007;28;20285;-66
2022/11/13 00:17:20;;;;;;;1.80;1.70;;;16.20;99.90;;;;;;5088003;28;20524;-66
2022/11/13 00:20:07;;;;;;;5.23;1.90;;;16.10;99.90;;;;;;5086800;28;20224;-65
2022/11/13 00:22:54;;;;;;;2.97;1.97;;;16.20;99.90;;;;;;5087228;28;20215;-64
2022/11/13 00:25:39;;;;;;;3.20;1.90;;;16.10;99.90;;;;;;5087730;28;20330;-64
2022/11/13 00:28:25;;;;;;;2.43;2.23;;;16.20;99.90;;;;;;5086450;28;20200;-64
2022/11/13 00:31:13;;;;;;;1.80;1.70;;;16.20;99.90;;;;;;5086026;28;20201;-66
2022/11/13 00:33:59;;;;;;;5.83;2.03;;;16.20;99.90;;;;;;5087732;28;20198;-65
2022/11/13 00:36:45;;;;;;;4.20;2.30;;;16.10;99.90;;;;;;5087731;28;20390;-65
2022/11/13 00:39:32;;;;;;;2.43;1.80;;;16.10;99.90;;;;;;5089934;28;20252;-66
2022/11/13 00:42:17;;;;;;;1.87;1.73;;;16.10;99.90;;;;;;5089021;28;20657;-65
2022/11/13 00:45:03;;;;;;;2.97;2.33;;;16.10;99.90;;;;;;5090645;28;20646;-66
2022/11/13 00:47:48;;;;;;;2.13;1.97;;;16.10;99.90;;;;;;5091866;28;20297;-66
2022/11/13 00:50:34;;;;;;;2.10;1.90;;;16.10;99.90;;;;;;5090994;28;20244;-66
2022/11/13 00:53:20;;;;;;;2.07;1.97;;;16.10;99.90;;;;;;5091279;28;20201;-66
2022/11/13 00:56:07;;;;;;;2.33;1.63;;;16.10;99.90;;;;;;5089174;28;20204;-65
2022/11/13 00:58:52;;;;;;;1.33;1.23;;;16.10;99.90;;;;;;5090256;28;20193;-65
2022/11/13 01:01:38;;;;;;;1.70;1.60;;;16.10;99.90;;;;;;5087811;28;20225;-66
2022/11/13 01:04:23;;;;;;;2.37;1.40;;;16.10;99.90;;;;;;5090733;28;20241;-66
2022/11/13 01:07:09;;;;;;;2.50;1.60;;;16.20;99.90;;;;;;5090454;28;20769;-66
2022/11/13 01:09:55;;;;;;;3.70;2.00;;;16.20;99.90;;;;;;5089367;28;20204;-66
2022/11/13 01:12:41;;;;;;;4.00;1.90;;;16.10;99.90;;;;;;5089954;28;20221;-67
2022/11/13 01:15:27;;;;;;;4.07;2.13;;;16.10;99.90;;;;;;5090407;28;20206;-67
2022/11/13 01:18:13;;;;;;;2.00;1.80;;;16.10;99.90;;;;;;5090038;28;20213;-66
2022/11/13 01:21:03;;;;;;;2.43;1.87;;;16.10;99.90;;;;;;5091297;28;20551;-65
2022/11/13 01:23:49;;;;;;;1.70;1.60;;;16.10;99.90;;;;;;5091034;28;20214;-65
2022/11/13 01:26:34;;;;;;;2.27;1.63;;;16.10;99.90;;;;;;5090083;28;20217;-65
2022/11/13 01:29:21;;;;;;;2.33;1.73;;;16.10;99.90;;;;;;5090529;28;20206;-66
2022/11/13 01:32:07;;;;;;;1.70;1.60;;;16.10;99.90;;;;;;5088237;28;20204;-66
2022/11/13 01:34:52;;;;;;;1.70;1.60;;;16.10;99.90;;;;;;5089919;28;20328;-65
2022/11/13 01:37:38;;;;;;;1.80;1.50;;;16.10;99.90;;;;;;5088781;28;20528;-66
2022/11/13 01:40:24;;;;;;;2.50;1.33;;;16.10;99.90;;;;;;5090291;28;20242;-66
2022/11/13 01:43:23;;;;;;;1.73;1.63;;;16.10;99.90;;;;;;5089990;28;20713;-66
2022/11/13 01:46:28;;;;;;;2.03;1.53;;;16.10;99.90;;;;;;5088902;28;20196;-65
2022/11/13 01:49:28;;;;;;;3.33;1.97;;;16.10;99.90;;;;;;5088112;28;20203;-65
2022/11/13 01:52:17;;;;;;;2.00;1.60;;;16.10;99.90;;;;;;5090918;28;20194;-65
2022/11/13 01:55:06;;;;;;;1.83;1.70;;;16.10;99.90;;;;;;5088591;28;20229;-66
2022/11/13 01:57:51;;;;;;;1.77;1.67;;;16.10;99.90;;;;;;5089907;28;20217;-67
2022/11/13 02:00:37;;;;;;;2.30;1.60;;;16.10;99.90;;;;;;5088778;28;20706;-66
2022/11/13 02:03:24;;;;;;;2.20;1.60;;;16.10;99.90;;;;;;5086981;28;20214;-66
2022/11/13 02:06:09;;;;;;;2.03;1.70;;;16.10;99.90;;;;;;5072140;28;20220;-66
2022/11/13 02:08:55;;;;;;;1.50;1.40;;;16.10;99.90;;;;;;5076040;28;20200;-66
2022/11/13 02:11:41;;;;;;;1.80;1.70;;;16.00;99.90;;;;;;5068303;28;20280;-65
2022/11/13 02:14:28;;;;;;;2.37;2.10;;;16.10;99.90;;;;;;5069106;28;20216;-64
2022/11/13 02:17:19;;;;;;;2.10;1.83;;;16.10;99.90;;;;;;5068275;28;20210;-65
2022/11/13 02:20:08;;;;;;;3.07;2.00;;;16.10;99.90;;;;;;5068679;28;20215;-64
2022/11/13 02:23:01;;;;;;;3.33;1.77;;;16.00;99.90;;;;;;5070785;28;20215;-64
2022/11/13 02:25:52;;;;;;;1.60;1.50;;;16.10;99.90;;;;;;5068143;28;20204;-64
2022/11/13 02:28:38;;;;;;;2.37;1.90;;;16.00;99.90;;;;;;5069686;28;20295;-63
2022/11/13 02:31:23;;;;;;;1.97;1.73;;;16.10;99.90;;;;;;5069470;28;20793;-65
2022/11/13 02:34:09;;;;;;;2.03;1.70;;;16.00;99.90;;;;;;5069665;28;20732;-65
2022/11/13 02:36:55;;;;;;;2.37;1.87;;;16.10;99.90;;;;;;5069140;28;20197;-65
2022/11/13 02:39:41;;;;;;;1.97;1.73;;;16.00;99.90;;;;;;5069828;28;20202;-65
2022/11/13 02:42:27;;;;;;;2.27;1.90;;;16.00;99.90;;;;;;5070411;28;20198;-65
2022/11/13 02:45:13;;;;;;;1.70;1.60;;;16.00;99.90;;;;;;5066737;28;20723;-65
2022/11/13 02:48:00;;;;;;;2.53;1.60;;;16.00;99.90;;;;;;5068579;28;20651;-66
2022/11/13 02:50:47;;;;;;;1.47;1.37;;;16.00;99.90;;;;;;5066441;28;20198;-64
2022/11/13 02:53:32;;;;;;;2.00;1.80;;;16.00;99.90;;;;;;5068541;28;20244;-65
2022/11/13 02:56:18;;;;;;;1.83;1.67;;;16.00;99.90;;;;;;5067327;28;20363;-64
2022/11/13 02:59:05;;;;;;;1.40;1.30;;;16.00;99.90;;;;;;5068920;28;20214;-65
2022/11/13 03:01:50;;;;;;;1.33;1.23;;;16.00;99.90;;;;;;5065158;28;20200;-64
2022/11/13 03:04:36;;;;;;;2.40;1.37;;;16.10;99.90;;;;;;5080004;28;20252;-65
2022/11/13 03:07:21;;;;;;;1.83;1.60;;;16.00;99.90;;;;;;5087279;28;20199;-64
2022/11/13 03:10:09;;;;;;;3.03;1.80;;;16.10;99.90;;;;;;5088197;28;20316;-65
2022/11/13 03:12:54;;;;;;;2.63;1.57;;;16.00;99.90;;;;;;5087461;28;20275;-65
2022/11/13 03:15:41;;;;;;;1.60;1.50;;;16.10;99.90;;;;;;5087283;28;20235;-65
2022/11/13 03:18:26;;;;;;;1.90;1.63;;;16.10;99.90;;;;;;5086574;28;20204;-64
2022/11/13 03:21:13;;;;;;;2.73;1.77;;;16.10;99.90;;;;;;5088804;28;20544;-64
2022/11/13 03:23:59;;;;;;;1.70;1.30;;;16.00;99.90;;;;;;5087887;28;20574;-64
2022/11/13 03:26:44;;;;;;;1.63;1.53;;;16.00;99.90;;;;;;5087313;28;20338;-64
2022/11/13 03:29:30;;;;;;;1.43;1.30;;;16.10;99.90;;;;;;5088227;28;20222;-64
2022/11/13 03:32:17;;;;;;;2.20;1.30;;;16.10;99.90;;;;;;5086427;28;20552;-65
2022/11/13 03:35:03;;;;;;;1.67;1.53;;;16.00;99.90;;;;;;5087656;28;20279;-65
2022/11/13 03:37:49;;;;;;;2.30;1.70;;;16.00;99.90;;;;;;5087706;28;20615;-65
2022/11/13 03:40:34;;;;;;;1.63;1.30;;;16.10;99.90;;;;;;5088209;28;20289;-65
2022/11/13 03:43:20;;;;;;;2.70;1.70;;;16.10;99.90;;;;;;5087777;28;20239;-65
2022/11/13 03:46:05;;;;;;;2.30;1.70;;;16.00;99.90;;;;;;5087131;28;20273;-65
2022/11/13 03:48:52;;;;;;;6.07;2.03;;;16.00;99.90;;;;;;5087584;28;20617;-65
2022/11/13 03:51:37;;;;;;;2.90;1.80;;;16.10;99.90;;;;;;5086245;28;20209;-66
2022/11/13 03:54:23;;;;;;;2.93;1.80;;;16.00;99.90;;;;;;5087251;28;20291;-65
2022/11/13 03:57:09;;;;;;;1.60;1.50;;;16.00;99.90;;;;;;5086884;28;20207;-66
2022/11/13 03:59:54;;;;;;;2.33;1.70;;;16.00;99.90;;;;;;5087955;28;20233;-66
2022/11/13 04:02:40;;;;;;;1.83;1.70;;;16.00;99.90;;;;;;5087177;28;20706;-65
2022/11/13 04:05:27;;;;;;;1.77;1.53;;;16.00;99.90;;;;;;5086709;28;20326;-64
2022/11/13 04:08:13;;;;;;;5.07;2.07;;;16.00;99.90;;;;;;5086497;28;20203;-64
2022/11/13 04:11:06;;;;;;;2.30;1.40;;;16.00;99.90;;;;;;5087130;28;20209;-65
2022/11/13 04:13:51;;;;;;;1.40;1.30;;;16.00;99.90;;;;;;5087494;28;20205;-65
2022/11/13 04:16:37;;;;;;;1.40;1.30;;;16.00;99.90;;;;;;5084737;28;20667;-64
2022/11/13 04:19:22;;;;;;;1.90;1.33;;;16.10;99.90;;;;;;5087927;28;20209;-65
2022/11/13 04:22:09;;;;;;;1.20;1.10;;;16.00;99.90;;;;;;5087495;28;20290;-65
2022/11/13 04:24:55;;;;;;;1.33;1.07;;;16.10;99.90;;;;;;5087318;28;20594;-65
2022/11/13 04:27:41;;;;;;;1.40;1.03;;;16.00;99.90;;;;;;5086610;28;20327;-65
2022/11/13 04:30:26;;;;;;;1.50;1.40;;;16.10;99.90;;;;;;5085007;28;20338;-65
2022/11/13 04:33:12;;;;;;;2.50;1.23;;;16.00;99.90;;;;;;5087562;28;20210;-65
2022/11/13 04:35:57;;;;;;;1.40;1.30;;;16.10;99.90;;;;;;5087511;28;20342;-64
2022/11/13 04:38:44;;;;;;;2.03;1.20;;;16.10;99.90;;;;;;5085871;28;20502;-65
2022/11/13 04:44:33;;;;;;;1.33;1.23;;;16.00;99.90;;;;;;5086278;28;20211;-65
2022/11/13 04:47:18;;;;;;;1.53;1.40;;;16.00;99.90;;;;;;5086609;28;20201;-65
2022/11/13 04:50:04;;;;;;;1.50;1.27;;;16.00;99.90;;;;;;5088034;28;20324;-65
2022/11/13 04:52:50;;;;;;;1.63;1.40;;;16.00;99.90;;;;;;5085949;28;20208;-64
2022/11/13 04:55:37;;;;;;;2.43;1.40;;;16.00;99.90;;;;;;5087239;28;20679;-66
2022/11/13 04:58:22;;;;;;;1.50;1.40;;;16.00;99.90;;;;;;5086175;28;20767;-66
2022/11/13 05:01:08;;;;;;;1.30;1.20;;;16.00;99.90;;;;;;5084139;28;20206;-65
2022/11/13 05:03:54;;;;;;;1.70;1.20;;;16.00;99.90;;;;;;5084405;28;20229;-65
2022/11/13 05:06:40;;;;;;;1.27;0.93;;;16.00;99.90;;;;;;5086305;28;20225;-65
2022/11/13 05:09:26;;;;;;;1.80;1.20;;;16.00;99.90;;;;;;5086788;28;20783;-65
2022/11/13 05:12:13;;;;;;;1.53;1.37;;;16.10;99.90;;;;;;5084082;28;20281;-64
2022/11/13 05:14:59;;;;;;;1.73;1.47;;;16.00;99.90;;;;;;5084778;28;20208;-65
2022/11/13 05:17:44;;;;;;;1.60;1.43;;;16.00;99.90;;;;;;5087771;28;20330;-64
2022/11/13 05:20:30;;;;;;;1.23;1.10;;;16.00;99.90;;;;;;5085386;28;20200;-64
2022/11/13 05:23:15;;;;;;;1.40;1.30;;;16.00;99.90;;;;;;5089878;28;20287;-65
2022/11/13 05:26:02;;;;;;;2.73;1.63;;;16.00;99.90;;;;;;5090622;28;20645;-65
2022/11/13 05:28:49;;;;;;;1.57;1.40;;;16.00;99.90;;;;;;5089939;28;20261;-65
2022/11/13 05:31:34;;;;;;;1.50;1.40;;;16.00;99.90;;;;;;5087732;28;20431;-64
2022/11/13 05:34:20;;;;;;;1.93;1.23;;;16.00;99.90;;;;;;5088298;28;20201;-64
2022/11/13 05:37:05;;;;;;;2.67;1.47;;;16.00;99.90;;;;;;5091131;28;20743;-64
2022/11/13 05:39:51;;;;;;;1.27;1.20;;;16.00;99.90;;;;;;5088516;28;20568;-65
2022/11/13 05:42:36;;;;;;;1.67;1.20;;;16.00;99.90;;;;;;5089882;28;20196;-64
2022/11/13 05:45:23;;;;;;;1.17;1.07;;;16.00;99.90;;;;;;5089070;28;20205;-65
2022/11/13 05:48:09;;;;;;;2.10;1.10;;;16.00;99.90;;;;;;5089732;28;20210;-65
2022/11/13 05:50:54;;;;;;;1.83;1.10;;;16.00;99.90;;;;;;5090037;28;20219;-64
2022/11/13 05:53:40;;;;;;;1.00;1.00;;;16.00;99.90;;;;;;5088743;28;20194;-65
2022/11/13 05:56:28;;;;;;;1.10;1.00;;;16.00;99.90;;;;;;5089271;28;20204;-65
2022/11/13 05:59:14;;;;;;;0.90;0.83;;;16.00;99.90;;;;;;5090004;28;20201;-65
2022/11/13 06:02:01;;;;;;;0.90;0.90;;;16.00;99.90;;;;;;5089597;28;20621;-65
2022/11/13 06:04:48;;;;;;;1.33;0.90;;;16.00;99.90;;;;;;5088884;28;20306;-65
2022/11/13 06:07:34;;;;;;;1.00;0.90;;;15.90;99.90;;;;;;5088159;28;20678;-64
2022/11/13 06:10:19;;;;;;;1.27;1.07;;;16.00;99.90;;;;;;5089824;28;20211;-65
2022/11/13 06:13:05;;;;;;;1.20;1.10;;;16.00;99.90;;;;;;5089223;28;20306;-65
2022/11/13 06:15:51;;;;;;;1.07;0.90;;;16.00;99.90;;;;;;5088614;28;20324;-65
2022/11/13 06:18:39;;;;;;;0.87;0.87;;;16.00;99.90;;;;;;5088175;28;20766;-65
2022/11/13 06:21:26;;;;;;;1.00;0.90;;;16.00;99.90;;;;;;5089288;28;20262;-65
2022/11/13 06:24:12;;;;;;;1.73;0.87;;;16.00;99.90;;;;;;5087629;28;20339;-64
2022/11/13 06:26:58;;;;;;;0.77;0.77;;;16.00;99.90;;;;;;5088609;28;20326;-65
2022/11/13 06:29:43;;;;;;;0.67;0.67;;;16.10;99.90;;;;;;5089178;28;20215;-65
2022/11/13 06:32:29;;;;;;;0.80;0.80;;;16.00;99.90;;;;;;5088708;28;20207;-65
2022/11/13 06:35:16;;;;;;;1.67;1.20;;;16.00;99.90;;;;;;5087778;28;20193;-65
2022/11/13 06:38:01;;;;;;;1.53;1.00;;;16.10;99.90;;;;;;5089662;28;20196;-65
2022/11/13 06:40:47;;;;;;;1.10;1.00;;;16.00;99.90;;;;;;5086613;28;20323;-65
2022/11/13 06:43:34;;;;;;;1.07;0.93;;;16.00;99.90;;;;;;5088784;28;20216;-64
2022/11/13 06:46:21;;;;;;;0.90;0.90;;;16.10;99.90;;;;;;5086373;28;20207;-65
2022/11/13 06:49:06;;;;;;;1.33;1.17;;;16.10;99.90;;;;;;5088928;28;20201;-65
2022/11/13 06:51:54;;;;;;;1.10;1.00;;;16.00;99.90;;;;;;5088937;28;20246;-65
2022/11/13 06:54:39;;;;;;;1.00;1.00;;;16.00;99.90;;;;;;5086204;28;20200;-65
2022/11/13 06:57:25;;;;;;;1.43;1.10;;;16.10;99.90;;;;;;5087491;28;20279;-66
2022/11/13 07:00:12;;;;;;;1.10;1.10;;;16.10;99.90;;;;;;5087924;28;20339;-65
2022/11/13 07:02:57;;;;;;;1.23;1.00;;;16.10;99.90;;;;;;5085651;28;20397;-65
2022/11/13 07:05:43;;;;;;;1.40;1.27;;;16.00;99.90;;;;;;5068323;28;20244;-65
2022/11/13 07:08:31;;;;;;;1.30;1.13;;;16.00;99.90;;;;;;5067134;28;20208;-65
2022/11/13 07:11:17;;;;;;;1.10;1.00;;;16.00;99.90;;;;;;5066679;28;20199;-64
2022/11/13 07:14:03;;;;;;;0.83;0.83;;;16.00;99.90;;;;;;5068813;28;20192;-65
2022/11/13 07:16:48;;;;;;;1.10;1.00;;;16.10;99.90;;;;;;5065249;28;20288;-65
2022/11/13 07:19:34;;;;;;;1.37;0.80;;;16.00;99.90;;;;;;5067526;28;20794;-65
2022/11/13 07:22:19;;;;;;;1.17;0.90;;;16.10;99.90;;;;;;5067640;28;20250;-65
2022/11/13 07:25:08;;;;;;;0.77;0.77;;;16.10;99.90;;;;;;5068093;28;20569;-65
2022/11/13 07:27:54;;;;;;;0.80;0.77;;;16.10;99.90;;;;;;5066457;28;20644;-65
2022/11/13 07:30:39;;;;;;;1.40;0.90;;;16.10;99.90;;;;;;5067534;28;20351;-65
2022/11/13 07:33:25;;;;;;;1.30;1.07;;;16.10;99.90;;;;;;5065611;28;20634;-65
2022/11/13 07:36:11;;;;;;;0.90;0.90;;;16.10;99.90;;;;;;5068606;28;20206;-66
2022/11/13 07:38:56;;;;;;;1.07;0.97;;;16.10;99.90;;;;;;5068204;28;20693;-64
2022/11/13 07:41:43;;;;;;;1.60;1.50;;;16.10;99.90;;;;;;5065783;28;20679;-65
2022/11/13 07:44:29;;;;;;;1.00;1.00;;;16.10;99.90;;;;;;5066565;28;20248;-65
2022/11/13 07:47:14;;;;;;;1.77;1.17;;;16.10;99.90;;;;;;5066904;28;20262;-65
2022/11/13 07:50:00;;;;;;;1.53;1.20;;;16.10;99.90;;;;;;5067018;28;20200;-64
2022/11/13 07:52:46;;;;;;;2.50;0.90;;;16.10;99.90;;;;;;5068051;28;20617;-64
2022/11/13 07:55:33;;;;;;;1.20;1.10;;;16.10;99.90;;;;;;5068104;28;20200;-65
2022/11/13 07:58:20;;;;;;;1.93;1.40;;;16.10;99.90;;;;;;5067381;28;20656;-65
2022/11/13 08:01:06;;;;;;;1.43;1.33;;;16.10;99.90;;;;;;5066665;28;20203;-65
2022/11/13 08:03:52;;;;;;;1.13;1.03;;;16.10;99.90;;;;;;5072541;28;20248;-65
2022/11/13 08:06:38;;;;;;;1.03;1.03;;;16.10;99.90;;;;;;5088469;28;20210;-64
2022/11/13 08:09:23;;;;;;;1.40;0.90;;;16.20;99.90;;;;;;5087684;28;20214;-65
2022/11/13 08:12:09;;;;;;;0.93;0.87;;;16.10;99.90;;;;;;5087676;28;20775;-64
2022/11/13 08:14:55;;;;;;;1.70;0.97;;;16.20;99.90;;;;;;5086888;28;20199;-65
2022/11/13 08:17:41;;;;;;;0.70;0.70;;;16.20;99.90;;;;;;5087117;28;20670;-64
2022/11/13 08:20:28;;;;;;;0.90;0.87;;;16.20;99.90;;;;;;5088634;28;20407;-65
2022/11/13 08:23:13;;;;;;;1.57;0.90;;;16.20;99.90;;;;;;5087784;28;20200;-64
2022/11/13 08:26:03;;;;;;;0.77;0.70;;;16.20;99.90;;;;;;5087446;28;20224;-64
2022/11/13 08:28:48;;;;;;;1.00;1.00;;;16.20;99.90;;;;;;5086646;28;20234;-65
2022/11/13 08:31:36;;;;;;;0.80;0.80;;;16.30;99.90;;;;;;5087976;28;20328;-65
2022/11/13 08:34:22;;;;;;;0.80;0.80;;;16.30;99.90;;;;;;5089329;28;20201;-65
2022/11/13 08:37:08;;;;;;;0.87;0.73;;;16.30;99.90;;;;;;5086191;28;20662;-64
2022/11/13 08:39:53;;;;;;;1.20;1.00;;;16.30;99.90;;;;;;5087501;28;20632;-65
2022/11/13 08:42:39;;;;;;;0.83;0.83;;;16.30;99.90;;;;;;5086453;28;20250;-65
2022/11/13 08:45:24;;;;;;;0.77;0.77;;;16.30;99.90;;;;;;5081133;28;20365;-64
2022/11/13 08:48:12;;;;;;;0.73;0.73;;;16.40;99.90;;;;;;5086243;28;20197;-65
2022/11/13 08:50:58;;;;;;;0.70;0.70;;;16.40;99.90;;;;;;5084871;28;20204;-65
2022/11/13 08:53:43;;;;;;;1.13;0.77;;;16.50;99.90;;;;;;5085585;28;20246;-65
2022/11/13 08:56:29;;;;;;;1.00;0.80;;;16.50;99.90;;;;;;5087613;28;20692;-64
2022/11/13 08:59:15;;;;;;;0.83;0.83;;;16.50;99.90;;;;;;5080277;28;20255;-64
2022/11/13 09:02:01;;;;;;;1.00;1.00;;;16.50;99.90;;;;;;5089360;28;20204;-65
2022/11/13 09:04:48;;;;;;;1.10;1.00;;;16.60;99.90;;;;;;5088882;28;20242;-65
2022/11/13 09:07:33;;;;;;;1.00;1.00;;;16.60;99.90;;;;;;5088220;28;20202;-65
2022/11/13 09:10:19;;;;;;;1.27;0.97;;;16.60;99.90;;;;;;5090139;28;20204;-64
2022/11/13 09:13:07;;;;;;;0.90;0.90;;;16.60;99.90;;;;;;5089559;28;20202;-64
2022/11/13 09:15:52;;;;;;;0.67;0.67;;;16.60;99.90;;;;;;5089505;28;20290;-65
2022/11/13 09:18:38;;;;;;;1.23;0.97;;;16.70;99.90;;;;;;5090625;28;20821;-64
2022/11/13 09:21:25;;;;;;;1.47;1.07;;;16.70;99.90;;;;;;5088968;28;20662;-65
2022/11/13 09:24:10;;;;;;;0.90;0.90;;;16.70;99.90;;;;;;5088771;28;20582;-64
2022/11/13 09:26:56;;;;;;;1.05;0.68;;;16.60;99.90;;;;;;5089849;28;20206;-65
2022/11/13 09:29:41;;;;;;;2.40;0.90;;;16.70;99.90;;;;;;5088692;28;20563;-65
2022/11/13 09:32:27;;;;;;;0.70;0.70;;;16.70;99.90;;;;;;5087452;28;20208;-64
2022/11/13 09:35:13;;;;;;;1.07;0.70;;;16.70;99.90;;;;;;5081349;28;20219;-64
2022/11/13 09:38:00;;;;;;;1.53;0.70;;;16.70;99.90;;;;;;5089134;28;20284;-64
2022/11/13 09:40:51;;;;;;;1.80;0.70;;;16.70;99.90;;;;;;5087174;28;20203;-64
2022/11/13 09:43:41;;;;;;;0.97;0.97;;;16.70;99.90;;;;;;5081771;28;20599;-66
2022/11/13 09:46:35;;;;;;;0.82;0.65;;;16.70;99.90;;;;;;5088535;28;20610;-64
2022/11/13 09:49:26;;;;;;;0.85;0.80;;;16.70;99.90;;;;;;5087416;28;20282;-64
2022/11/13 09:52:15;;;;;;;0.67;0.67;;;16.70;99.90;;;;;;5089445;28;20317;-63
2022/11/13 09:55:03;;;;;;;0.70;0.70;;;16.70;99.90;;;;;;5085682;28;20249;-64
2022/11/13 09:57:54;;;;;;;2.78;0.70;;;16.70;99.90;;;;;;5087617;28;20210;-63
2022/11/13 10:00:40;;;;;;;0.90;0.73;;;16.70;99.90;;;;;;5085046;28;20280;-63
2022/11/13 10:03:34;;;;;;;0.70;0.70;;;16.70;99.90;;;;;;5087769;28;20207;-63
2022/11/13 10:06:27;;;;;;;1.43;0.97;;;16.70;99.90;;;;;;5085997;28;20374;-63
2022/11/13 10:09:24;;;;;;;1.80;0.80;;;16.70;99.90;;;;;;5086563;28;20245;-63
2022/11/13 10:12:14;;;;;;;1.17;0.90;;;16.70;99.90;;;;;;5089079;28;20205;-63
2022/11/13 10:15:03;;;;;;;1.60;0.77;;;16.70;99.90;;;;;;5087180;28;20221;-65
2022/11/13 10:17:51;;;;;;;0.50;0.50;;;16.70;99.90;;;;;;5087815;28;20203;-63
2022/11/13 10:20:40;;;;;;;0.63;0.63;;;16.80;99.90;;;;;;5089446;28;20672;-63
2022/11/13 10:23:29;;;;;;;0.85;0.85;;;16.70;99.90;;;;;;5088078;28;20198;-63
2022/11/13 10:26:17;;;;;;;0.57;0.57;;;16.80;99.90;;;;;;5088521;28;20221;-63
2022/11/13 10:29:14;;;;;;;0.60;0.60;;;16.80;99.90;;;;;;5088789;28;20207;-64
2022/11/13 10:32:00;;;;;;;1.10;1.00;;;16.80;99.90;;;;;;5088150;28;20210;-63
2022/11/13 10:34:51;;;;;;;1.00;0.80;;;16.80;99.90;;;;;;5088403;28;20211;-64
2022/11/13 10:37:58;;;;;;;0.70;0.70;;;16.80;99.90;;;;;;5087875;28;20223;-63
2022/11/13 10:40:44;;;;;;;1.03;0.83;;;16.80;99.90;;;;;;5088238;28;20621;-63
2022/11/13 10:43:29;;;;;;;1.58;0.70;;;16.80;99.90;;;;;;5088014;28;20210;-63
2022/11/13 10:46:20;;;;;;;0.83;0.80;;;16.80;99.90;;;;;;5087630;28;20851;-63
2022/11/13 10:49:13;;;;;;;1.08;0.80;;;16.80;99.90;;;;;;5088075;28;20217;-62
2022/11/13 10:52:01;;;;;;;1.27;1.00;;;16.80;99.90;;;;;;5088536;28;20198;-62
2022/11/13 10:54:46;;;;;;;1.23;0.70;;;16.90;99.90;;;;;;5086993;28;20214;-64
2022/11/13 10:57:34;;;;;;;1.63;0.70;;;16.80;99.90;;;;;;5085592;28;20201;-63
2022/11/13 11:00:22;;;;;;;0.52;0.52;;;16.90;99.90;;;;;;5088434;28;20352;-63
2022/11/13 11:03:14;;;;;;;0.93;0.60;;;16.80;99.90;;;;;;5088611;28;20203;-64
2022/11/13 11:06:01;;;;;;;1.37;0.83;;;16.90;99.90;;;;;;5088197;28;20585;-63
2022/11/13 11:08:47;;;;;;;0.90;0.90;;;16.90;99.90;;;;;;5086589;28;20198;-64
2022/11/13 11:14:40;;;;;;;2.17;0.90;;;16.80;99.90;;;;;;5085832;28;20199;-63
2022/11/13 11:17:40;;;;;;;1.70;1.33;;;16.90;99.90;;;;;;5088084;28;20202;-64
2022/11/13 11:20:39;;;;;;;2.67;1.70;;;16.80;99.90;;;;;;5087551;28;20419;-64
2022/11/13 11:23:30;;;;;;;4.47;2.00;;;16.80;99.90;;;;;;5085997;28;20349;-64
2022/11/13 11:26:22;;;;;;;4.20;2.07;;;16.70;99.90;;;;;;5087283;28;20576;-63
2022/11/13 11:29:17;;;;;;;2.90;1.60;;;16.70;99.90;;;;;;5088275;28;20768;-63
2022/11/13 11:32:09;;;;;;;1.50;1.40;;;16.60;99.90;;;;;;5086725;28;20198;-64
2022/11/13 11:35:04;;;;;;;2.57;1.20;;;16.60;99.90;;;;;;5087455;28;20235;-64
2022/11/13 11:37:57;;;;;;;3.73;1.93;;;16.70;99.90;;;;;;5085863;28;20295;-64
2022/11/13 11:40:46;;;;;;;4.67;1.70;;;16.70;99.90;;;;;;5087463;28;20210;-64
2022/11/13 11:43:40;;;;;;;2.67;1.30;;;16.60;99.90;;;;;;5085644;28;20272;-64
2022/11/13 11:46:27;;;;;;;1.60;1.30;;;16.60;99.90;;;;;;5084892;28;20265;-64
2022/11/13 11:49:12;;;;;;;1.10;1.00;;;16.60;99.90;;;;;;5086306;28;20226;-64
2022/11/13 11:52:08;;;;;;;1.33;1.20;;;16.60;99.90;;;;;;5088255;28;20334;-64
2022/11/13 11:55:05;;;;;;;1.00;1.00;;;16.60;99.90;;;;;;5085185;28;20194;-64
2022/11/13 11:57:58;;;;;;;2.63;1.33;;;16.60;99.90;;;;;;5085666;28;20296;-64
2022/11/13 12:00:50;;;;;;;1.40;1.30;;;16.60;99.90;;;;;;5086756;28;20198;-64
2022/11/13 12:03:55;;;;;;;1.30;0.97;;;16.60;99.90;;;;;;5086928;28;20269;-64
2022/11/13 12:06:50;;;;;;;2.53;1.77;;;16.50;99.90;;;;;;5085955;28;20333;-64
2022/11/13 12:09:40;;;;;;;3.63;2.23;;;16.60;99.90;;;;;;5086161;28;20204;-64
2022/11/13 12:12:42;;;;;;;2.53;2.33;;;16.60;99.90;;;;;;5084935;28;20205;-64
2022/11/13 12:15:37;;;;;;;1.60;1.50;;;16.60;99.90;;;;;;5086133;28;20204;-64
2022/11/13 12:18:35;;;;;;;2.93;2.07;;;16.60;99.90;;;;;;5085321;28;20278;-64
2022/11/13 12:21:27;;;;;;;3.65;2.22;;;16.60;99.90;;;;;;5086878;28;20211;-63
2022/11/13 12:24:37;;;;;;;5.13;2.00;;;16.60;99.90;;;;;;5085595;28;20294;-64
2022/11/13 12:27:31;;;;;;;3.72;1.90;;;16.60;99.90;;;;;;5084430;28;20195;-65
2022/11/13 12:30:19;;;;;;;1.60;1.48;;;16.60;99.90;;;;;;5087123;28;20341;-64
2022/11/13 12:33:21;;;;;;;1.90;1.60;;;16.60;99.90;;;;;;5086266;28;20202;-64
2022/11/13 12:36:10;;;;;;;1.37;1.27;;;16.70;99.90;;;;;;5084905;28;20205;-64
2022/11/13 12:39:02;;;;;;;1.50;1.40;;;16.60;99.90;;;;;;5086885;28;20269;-64
2022/11/13 12:41:53;;;;;;;1.30;1.20;;;16.70;99.90;;;;;;5086323;28;20203;-64
2022/11/13 12:44:49;;;;;;;1.00;1.00;;;16.70;99.90;;;;;;5086394;28;20224;-63
2022/11/13 12:47:35;;;;;;;1.15;1.08;;;16.60;99.90;;;;;;5085450;28;20233;-63
2022/11/13 12:50:25;;;;;;;1.77;1.50;;;16.60;99.90;;;;;;5087462;28;20214;-64
2022/11/13 12:53:12;;;;;;;3.37;2.47;;;16.60;99.90;;;;;;5085800;28;20556;-64
2022/11/13 12:55:59;;;;;;;5.65;2.35;;;16.60;99.90;;;;;;5086390;28;20194;-63
2022/11/13 12:58:56;;;;;;;7.43;3.00;;;16.80;99.90;;;;;;5086242;28;20315;-63
2022/11/13 13:01:48;;;;;;;4.90;3.10;;;16.50;99.90;;;;;;5084510;28;20341;-63
2022/11/13 13:04:54;;;;;;;3.93;2.97;;;16.50;99.90;;;;;;5084446;28;20226;-64
2022/11/13 13:08:16;;;;;;;5.13;3.22;;;16.50;99.90;;;;;;5086710;28;20642;-64
2022/11/13 13:11:13;;;;;;;5.23;2.47;;;16.50;99.90;;;;;;5067429;28;20266;-64
2022/11/13 13:14:16;;;;;;;5.00;2.30;;;16.40;99.90;;;;;;5086933;28;20214;-63
2022/11/13 13:17:17;;;;;;;3.03;1.83;;;16.40;99.90;;;;;;5086299;28;20238;-64
2022/11/13 13:20:05;;;;;;;2.37;1.67;;;16.40;99.90;;;;;;5084625;28;20738;-63
2022/11/13 13:22:56;;;;;;;1.33;1.20;;;16.40;99.90;;;;;;5084306;28;20211;-63
2022/11/13 13:25:41;;;;;;;2.50;2.00;;;16.40;99.90;;;;;;5086056;28;20222;-63
2022/11/13 13:28:27;;;;;;;7.33;3.20;;;16.50;99.90;;;;;;5086090;28;20631;-64
2022/11/13 13:31:27;;;;;;;5.27;2.70;;;16.40;99.90;;;;;;5084652;28;20856;-63
2022/11/13 13:34:27;;;;;;;4.55;2.53;;;16.40;99.90;;;;;;5085868;28;20219;-63
2022/11/13 13:37:25;;;;;;;6.47;3.03;;;16.40;99.90;;;;;;5083401;28;20203;-63
2022/11/13 13:40:21;;;;;;;5.00;2.58;;;16.40;99.90;;;;;;5085194;28;20213;-64
2022/11/13 13:43:25;;;;;;;7.13;2.90;;;16.40;99.90;;;;;;5086883;28;20949;-63
2022/11/13 13:46:15;;;;;;;7.43;3.50;;;16.30;99.90;;;;;;5085959;28;20288;-64
2022/11/13 13:49:05;;;;;;;8.63;4.30;;;16.20;99.90;;;;;;5089692;28;20727;-64
2022/11/13 13:51:55;;;;;;;10.50;5.13;;;16.20;99.90;;;;;;5087150;28;20243;-64
2022/11/13 13:54:42;;;;;;;10.30;4.93;;;16.20;99.90;;;;;;5085047;28;20632;-63
2022/11/13 13:57:29;;;;;;;8.50;4.70;;;16.10;99.90;;;;;;5089024;28;20336;-65
2022/11/13 14:00:17;;;;;;;6.37;3.60;;;16.10;99.90;;;;;;5087538;28;20311;-63
2022/11/13 14:03:03;;;;;;;8.73;3.90;;;16.10;99.90;;;;;;5089417;28;20571;-64
2022/11/13 14:05:49;;;;;;;12.33;4.77;;;16.00;99.90;;;;;;5089500;28;20252;-63
2022/11/13 14:08:36;;;;;;;7.10;3.80;;;16.00;99.90;;;;;;5088662;28;20227;-63
2022/11/13 14:11:25;;;;;;;6.63;3.63;;;16.00;99.90;;;;;;5087354;28;20209;-63
2022/11/13 14:14:17;;;;;;;5.70;3.73;;;16.00;99.90;;;;;;5090340;28;20666;-64
2022/11/13 14:17:02;;;;;;;8.70;4.27;;;16.10;99.90;;;;;;5087722;28;21543;-63
2022/11/13 14:19:50;;;;;;;8.97;4.40;;;16.00;99.90;;;;;;5086430;28;20308;-65
2022/11/13 14:22:35;;;;;;;7.03;4.33;;;16.00;99.90;;;;;;5089018;28;20195;-64
2022/11/13 14:25:26;;;;;;;4.50;3.40;;;16.00;99.90;;;;;;5088877;28;20631;-64
2022/11/13 14:28:16;;;;;;;5.77;3.10;;;15.90;99.90;;;;;;5085740;28;20885;-63
2022/11/13 14:31:04;;;;;;;7.13;3.73;;;15.90;99.90;;;;;;5086001;28;20281;-63
2022/11/13 14:33:50;;;;;;;5.13;3.80;;;15.90;99.90;;;;;;5088925;28;20326;-63
2022/11/13 14:36:37;;;;;;;13.17;5.13;;;15.90;99.90;;;;;;5088727;28;20493;-64
2022/11/13 14:39:26;;;;;;;6.93;3.80;;;15.90;99.90;;;;;;5087764;28;20219;-64